createdAt,value
2022-10-29T00:01:42.310Z,4.10
2022-10-29T00:05:44.075Z,3.63
2022-10-29T00:09:45.693Z,5.00
2022-10-29T00:13:52.766Z,5.60
2022-10-29T00:21:56.494Z,3.55
2022-10-29T00:25:59.299Z,4.45
2022-10-29T00:30:00.975Z,4.65
2022-10-29T00:34:02.870Z,6.20
2022-10-29T00:38:04.556Z,4.95
2022-10-29T00:42:06.245Z,4.18
2022-10-29T00:46:11.775Z,3.75
2022-10-29T00:50:14.462Z,3.55
2022-10-29T00:54:16.802Z,2.63
2022-10-29T00:58:19.453Z,3.15
2022-10-29T01:02:23.383Z,3.72
2022-10-29T01:06:25.367Z,3.30
2022-10-29T01:10:55.592Z,3.70
2022-10-29T01:15:15.862Z,2.85
2022-10-29T01:19:32.441Z,3.90
2022-10-29T01:24:01.838Z,3.83
2022-10-29T01:28:22.295Z,4.15
2022-10-29T01:32:29.890Z,4.57
2022-10-29T01:36:42.063Z,5.03
2022-10-29T01:40:55.968Z,5.82
2022-10-29T01:45:14.449Z,6.53
2022-10-29T01:49:23.020Z,5.30
2022-10-29T01:53:26.203Z,4.22
2022-10-29T01:57:38.975Z,5.60
2022-10-29T02:02:05.485Z,4.13
2022-10-29T02:06:13.239Z,3.45
2022-10-29T02:10:40.730Z,4.28
2022-10-29T02:14:57.450Z,3.95
2022-10-29T02:19:00.022Z,3.80
2022-10-29T02:23:01.751Z,4.90
2022-10-29T02:27:03.534Z,5.78
2022-10-29T02:31:05.803Z,5.72
2022-10-29T02:35:08.094Z,4.82
2022-10-29T02:39:09.811Z,5.40
2022-10-29T02:43:11.567Z,5.13
2022-10-29T02:47:13.372Z,4.25
2022-10-29T02:51:15.672Z,3.33
2022-10-29T02:55:17.378Z,3.63
2022-10-29T02:59:19.103Z,3.88
2022-10-29T03:03:21.329Z,4.28
2022-10-29T03:07:23.392Z,4.40
2022-10-29T03:11:25.221Z,3.33
2022-10-29T03:15:27.625Z,4.10
2022-10-29T03:19:29.487Z,3.72
2022-10-29T03:23:31.622Z,4.18
2022-10-29T03:27:33.850Z,3.80
2022-10-29T03:31:35.811Z,3.63
2022-10-29T03:35:37.890Z,6.60
2022-10-29T03:39:40.072Z,6.53
2022-10-29T03:43:42.035Z,6.57
2022-10-29T03:47:44.072Z,8.50
2022-10-29T03:51:46.893Z,9.80
2022-10-29T03:55:50.900Z,10.25
2022-10-29T03:59:53.061Z,7.82
2022-10-29T04:03:55.257Z,7.30
2022-10-29T04:07:57.033Z,4.45
2022-10-29T04:11:59.031Z,3.80
2022-10-29T04:16:01.015Z,4.30
2022-10-29T04:20:03.202Z,3.20
2022-10-29T04:28:44.499Z,2.83
2022-10-29T04:32:46.671Z,2.70
2022-10-29T04:36:48.719Z,2.95
2022-10-29T04:40:50.829Z,2.97
2022-10-29T04:44:52.890Z,3.30
2022-10-29T04:48:55.056Z,3.90
2022-10-29T04:53:01.138Z,3.13
2022-10-29T04:57:03.045Z,3.17
2022-10-29T05:01:05.487Z,4.07
2022-10-29T05:05:08.386Z,2.63
2022-10-29T05:09:10.065Z,2.92
2022-10-29T05:13:12.604Z,3.03
2022-10-29T05:17:14.827Z,1.77
2022-10-29T05:21:16.970Z,2.55
2022-10-29T05:25:18.870Z,2.78
2022-10-29T05:29:20.919Z,3.80
2022-10-29T05:33:24.833Z,4.60
2022-10-29T05:37:28.072Z,5.20
2022-10-29T05:41:30.064Z,4.40
2022-10-29T05:45:32.389Z,2.70
2022-10-29T05:49:34.510Z,2.35
2022-10-29T05:53:45.460Z,2.95
2022-10-29T05:57:47.217Z,3.00
2022-10-29T06:01:48.956Z,2.80
2022-10-29T06:05:51.070Z,2.47
2022-10-29T06:09:52.763Z,2.90
2022-10-29T06:13:57.595Z,2.15
2022-10-29T06:17:59.374Z,1.95
2022-10-29T06:22:01.136Z,2.30
2022-10-29T06:26:03.496Z,2.08
2022-10-29T06:30:06.331Z,1.95
2022-10-29T06:34:08.066Z,2.33
2022-10-29T06:38:12.420Z,2.42
2022-10-29T06:42:14.422Z,2.20
2022-10-29T06:46:16.183Z,1.80
2022-10-29T06:50:17.969Z,3.28
2022-10-29T06:54:19.665Z,2.83
2022-10-29T06:58:21.434Z,3.15
2022-10-29T07:02:23.782Z,2.50
2022-10-29T07:06:25.839Z,2.33
2022-10-29T07:10:30.083Z,2.40
2022-10-29T07:14:31.797Z,2.00
2022-10-29T07:18:33.594Z,1.98
2022-10-29T07:22:35.992Z,2.05
2022-10-29T07:26:38.684Z,2.13
2022-10-29T07:30:40.936Z,2.47
2022-10-29T07:34:42.703Z,2.10
2022-10-29T07:38:44.460Z,2.35
2022-10-29T07:42:46.216Z,2.50
2022-10-29T07:46:47.972Z,3.67
2022-10-29T07:50:50.486Z,3.10
2022-10-29T07:54:52.195Z,4.47
2022-10-29T07:58:53.913Z,3.15
2022-10-29T08:02:55.646Z,2.53
2022-10-29T08:06:57.373Z,2.50
2022-10-29T08:11:03.941Z,2.33
2022-10-29T08:15:06.345Z,2.85
2022-10-29T08:19:09.232Z,3.30
2022-10-29T08:23:11.348Z,3.42
2022-10-29T08:27:13.093Z,3.47
2022-10-29T08:31:16.007Z,3.80
2022-10-29T08:35:17.863Z,2.92
2022-10-29T08:39:19.607Z,3.88
2022-10-29T08:43:27.453Z,4.50
2022-10-29T08:47:42.709Z,2.65
2022-10-29T08:52:05.119Z,2.65
2022-10-29T08:56:15.383Z,2.53
2022-10-29T09:00:20.163Z,2.70
2022-10-29T09:04:26.235Z,3.47
2022-10-29T09:08:45.991Z,2.53
2022-10-29T09:12:47.725Z,3.90
2022-10-29T09:17:19.112Z,5.25
2022-10-29T09:21:45.756Z,3.35
2022-10-29T09:25:53.909Z,2.53
2022-10-29T09:30:18.754Z,3.10
2022-10-29T09:34:31.820Z,2.53
2022-10-29T09:38:40.333Z,3.33
2022-10-29T09:42:46.187Z,4.20
2022-10-29T09:47:12.831Z,2.97
2022-10-29T09:51:53.922Z,2.90
2022-10-29T09:55:55.823Z,2.65
2022-10-29T10:00:13.619Z,2.75
2022-10-29T10:04:29.869Z,3.03
2022-10-29T10:08:33.392Z,3.53
2022-10-29T10:12:38.119Z,3.22
2022-10-29T10:16:41.013Z,3.58
2022-10-29T10:20:45.797Z,2.67
2022-10-29T10:24:48.117Z,3.53
2022-10-29T10:29:08.955Z,3.80
2022-10-29T10:33:12.567Z,3.33
2022-10-29T10:37:19.734Z,3.05
2022-10-29T10:41:25.719Z,3.75
2022-10-29T10:45:37.943Z,3.50
2022-10-29T10:49:39.891Z,2.95
2022-10-29T10:53:41.711Z,3.28
2022-10-29T10:57:54.035Z,3.22
2022-10-29T11:02:00.747Z,4.30
2022-10-29T11:06:12.326Z,3.78
2022-10-29T11:10:17.354Z,3.58
2022-10-29T11:14:32.858Z,4.40
2022-10-29T11:18:49.877Z,3.38
2022-10-29T11:23:14.031Z,2.95
2022-10-29T11:27:36.539Z,2.47
2022-10-29T11:31:53.778Z,3.42
2022-10-29T11:36:14.457Z,2.47
2022-10-29T11:40:24.344Z,2.97
2022-10-29T11:44:27.311Z,3.10
2022-10-29T11:48:35.060Z,2.97
2022-10-29T11:53:01.172Z,2.97
2022-10-29T11:57:24.594Z,3.17
2022-10-29T12:01:57.264Z,2.65
2022-10-29T12:06:29.778Z,3.05
2022-10-29T12:10:52.902Z,2.45
2022-10-29T12:15:05.188Z,3.08
2022-10-29T12:19:16.518Z,2.60
2022-10-29T12:23:25.314Z,2.55
2022-10-29T12:27:39.902Z,2.60
2022-10-29T12:31:51.103Z,2.47
2022-10-29T12:36:16.137Z,2.33
2022-10-29T12:40:24.774Z,2.42
2022-10-29T12:44:35.308Z,2.67
2022-10-29T12:48:46.322Z,2.50
2022-10-29T12:52:57.502Z,2.47
2022-10-29T12:57:14.512Z,2.70
2022-10-29T13:01:57.166Z,3.03
2022-10-29T13:05:52.980Z,2.70
2022-10-29T13:10:28.643Z,2.70
2022-10-29T13:15:10.500Z,2.47
2022-10-29T13:19:18.490Z,2.30
2022-10-29T13:23:22.947Z,2.40
2022-10-29T13:27:27.673Z,2.30
2022-10-29T13:31:29.368Z,2.10
2022-10-29T13:35:31.038Z,2.70
2022-10-29T13:39:32.719Z,2.00
2022-10-29T13:43:35.033Z,3.25
2022-10-29T13:47:39.054Z,2.67
2022-10-29T13:51:50.167Z,2.80
2022-10-29T13:55:53.072Z,3.22
2022-10-29T14:00:07.327Z,2.53
2022-10-29T14:04:30.382Z,2.50
2022-10-29T14:08:44.130Z,2.60
2022-10-29T14:12:49.040Z,3.08
2022-10-29T14:16:50.893Z,2.78
2022-10-29T14:20:58.374Z,2.40
2022-10-29T14:25:02.052Z,1.75
2022-10-29T14:29:19.762Z,2.20
2022-10-29T14:33:27.061Z,2.80
2022-10-29T14:37:32.820Z,2.47
2022-10-29T14:41:38.988Z,2.10
2022-10-29T14:45:40.652Z,1.90
2022-10-29T14:49:48.321Z,1.60
2022-10-29T14:53:56.279Z,1.73
2022-10-29T14:58:16.269Z,2.10
2022-10-29T15:02:36.875Z,1.77
2022-10-29T15:06:39.607Z,1.75
2022-10-29T15:10:58.144Z,1.98
2022-10-29T15:15:21.215Z,1.75
2022-10-29T15:19:23.200Z,3.00
2022-10-29T15:23:27.876Z,2.15
2022-10-29T15:27:29.913Z,2.30
2022-10-29T15:31:44.493Z,2.60
2022-10-29T15:35:51.844Z,2.80
2022-10-29T15:40:01.607Z,2.42
2022-10-29T15:44:03.537Z,2.30
2022-10-29T15:48:05.688Z,2.75
2022-10-29T15:52:13.054Z,2.90
2022-10-29T15:56:14.811Z,2.95
2022-10-29T16:00:16.629Z,3.97
2022-10-29T16:04:18.455Z,3.15
2022-10-29T16:08:26.141Z,3.33
2022-10-29T16:12:28.564Z,3.20
2022-10-29T16:16:30.767Z,3.25
2022-10-29T16:20:32.642Z,3.20
2022-10-29T16:24:35.057Z,3.10
2022-10-29T16:28:36.736Z,3.00
2022-10-29T16:32:39.719Z,2.50
2022-10-29T16:36:41.667Z,2.42
2022-10-29T16:40:43.407Z,2.78
2022-10-29T16:44:46.256Z,2.33
2022-10-29T16:48:47.971Z,2.42
2022-10-29T16:52:59.675Z,2.88
2022-10-29T16:57:01.415Z,2.90
2022-10-29T17:01:08.151Z,3.05
2022-10-29T17:05:11.132Z,2.50
2022-10-29T17:09:12.959Z,1.80
2022-10-29T17:13:14.872Z,1.63
2022-10-29T17:17:16.565Z,1.83
2022-10-29T17:21:18.299Z,1.85
2022-10-29T17:25:20.143Z,1.80
2022-10-29T17:29:21.939Z,2.13
2022-10-29T17:33:23.653Z,2.38
2022-10-29T17:37:25.988Z,1.95
2022-10-29T17:41:27.644Z,1.80
2022-10-29T17:45:29.383Z,1.55
2022-10-29T17:49:31.097Z,1.80
2022-10-29T17:53:32.929Z,1.95
2022-10-29T17:57:34.584Z,2.35
2022-10-29T18:01:36.455Z,2.55
2022-10-29T18:05:38.490Z,2.55
2022-10-29T18:09:40.159Z,2.75
2022-10-29T18:13:43.069Z,2.38
2022-10-29T18:17:44.867Z,2.08
2022-10-29T18:21:46.579Z,2.25
2022-10-29T18:26:06.965Z,2.47
2022-10-29T18:30:09.193Z,2.55
2022-10-29T18:34:11.463Z,2.17
2022-10-29T18:38:13.124Z,2.10
2022-10-29T18:42:14.889Z,2.13
2022-10-29T18:46:17.482Z,2.03
2022-10-29T18:50:19.242Z,2.05
2022-10-29T18:54:21.063Z,2.08
2022-10-29T18:58:22.867Z,1.80
2022-10-29T19:02:24.596Z,2.05
2022-10-29T19:06:29.112Z,2.47
2022-10-29T19:10:30.804Z,2.42
2022-10-29T19:14:32.536Z,3.40
2022-10-29T19:18:35.121Z,3.05
2022-10-29T19:22:36.837Z,3.33
2022-10-29T19:26:38.690Z,2.40
2022-10-29T19:30:40.747Z,1.98
2022-10-29T19:34:43.957Z,1.85
2022-10-29T19:38:46.008Z,2.03
2022-10-29T19:42:48.545Z,2.78
2022-10-29T19:46:51.117Z,2.53
2022-10-29T19:50:55.124Z,2.72
2022-10-29T19:54:56.847Z,2.70
2022-10-29T19:58:58.642Z,1.90
2022-10-29T20:03:00.794Z,1.90
2022-10-29T20:07:02.668Z,1.70
2022-10-29T20:11:05.386Z,2.00
2022-10-29T20:15:07.618Z,1.70
2022-10-29T20:19:11.280Z,1.60
2022-10-29T20:23:13.041Z,2.55
2022-10-29T20:27:14.794Z,1.65
2022-10-29T20:31:16.465Z,1.75
2022-10-29T20:35:18.209Z,1.70
2022-10-29T20:39:20.226Z,2.00
2022-10-29T20:43:22.057Z,1.83
2022-10-29T20:47:23.864Z,1.80
2022-10-29T20:51:26.113Z,2.00
2022-10-29T20:55:27.883Z,2.00
2022-10-29T20:59:29.677Z,1.60
2022-10-29T21:03:31.413Z,1.70
2022-10-29T21:07:33.158Z,1.90
2022-10-29T21:11:34.965Z,1.58
2022-10-29T21:15:36.862Z,1.55
2022-10-29T21:19:38.610Z,2.03
2022-10-29T21:23:41.009Z,1.50
2022-10-29T21:27:42.767Z,1.80
2022-10-29T21:31:48.649Z,1.50
2022-10-29T21:35:51.942Z,1.58
2022-10-29T21:39:53.693Z,1.92
2022-10-29T21:43:55.586Z,1.85
2022-10-29T21:47:57.285Z,1.80
2022-10-29T21:51:59.038Z,2.15
2022-10-29T21:56:02.854Z,1.80
2022-10-29T22:00:09.822Z,3.80
2022-10-29T22:04:12.389Z,3.33
2022-10-29T22:08:14.620Z,3.13
2022-10-29T22:12:16.615Z,2.80
2022-10-29T22:16:18.870Z,2.85
2022-10-29T22:20:20.606Z,3.03
2022-10-29T22:24:22.377Z,2.25
2022-10-29T22:28:24.266Z,2.50
2022-10-29T22:32:25.999Z,2.50
2022-10-29T22:36:28.354Z,3.92
2022-10-29T22:40:30.093Z,2.55
2022-10-29T22:44:31.829Z,2.78
2022-10-29T22:48:34.177Z,3.85
2022-10-29T22:52:35.971Z,4.20
2022-10-29T22:56:38.770Z,4.18
2022-10-29T23:00:40.502Z,4.43
2022-10-29T23:04:42.288Z,4.93
2022-10-29T23:08:44.763Z,4.93
2022-10-29T23:12:46.499Z,4.35
2022-10-29T23:16:48.233Z,3.72
2022-10-29T23:20:58.113Z,4.32
2022-10-29T23:24:59.805Z,4.35
2022-10-29T23:29:01.625Z,3.55
2022-10-29T23:33:03.517Z,2.47
2022-10-29T23:37:08.797Z,2.20
2022-10-29T23:41:12.384Z,2.58
2022-10-29T23:45:16.902Z,2.05
2022-10-29T23:49:18.674Z,3.10
2022-10-29T23:53:20.444Z,3.00
2022-10-29T23:57:22.151Z,2.47
